sensor_id;sensor_type;location;lat;lon;timestamp;temperature;humidity
76751;SHT31;65216;51.090;-115.352;2023-04-08T00:02:05;21.86;23.44
76751;SHT31;65216;51.090;-115.352;2023-04-08T00:04:32;21.86;23.37
76751;SHT31;65216;51.090;-115.352;2023-04-08T00:07:02;21.84;23.36
76751;SHT31;65216;51.090;-115.352;2023-04-08T00:09:28;21.82;23.30
76751;SHT31;65216;51.090;-115.352;2023-04-08T00:11:55;21.80;23.29
76751;SHT31;65216;51.090;-115.352;2023-04-08T00:14:26;21.78;23.25
76751;SHT31;65216;51.090;-115.352;2023-04-08T00:16:53;21.76;23.22
76751;SHT31;65216;51.090;-115.352;2023-04-08T00:19:20;21.75;23.20
76751;SHT31;65216;51.090;-115.352;2023-04-08T00:21:47;21.73;23.18
76751;SHT31;65216;51.090;-115.352;2023-04-08T00:24:14;21.73;23.19
76751;SHT31;65216;51.090;-115.352;2023-04-08T00:26:42;21.72;23.12
76751;SHT31;65216;51.090;-115.352;2023-04-08T00:29:09;21.70;23.13
76751;SHT31;65216;51.090;-115.352;2023-04-08T00:31:36;21.69;23.10
76751;SHT31;65216;51.090;-115.352;2023-04-08T00:34:03;21.69;23.08
76751;SHT31;65216;51.090;-115.352;2023-04-08T00:36:30;21.68;23.06
76751;SHT31;65216;51.090;-115.352;2023-04-08T00:38:58;21.67;23.07
76751;SHT31;65216;51.090;-115.352;2023-04-08T00:41:27;21.66;23.06
76751;SHT31;65216;51.090;-115.352;2023-04-08T00:43:55;21.64;23.05
76751;SHT31;65216;51.090;-115.352;2023-04-08T00:46:25;21.64;23.00
76751;SHT31;65216;51.090;-115.352;2023-04-08T00:48:53;21.63;23.03
76751;SHT31;65216;51.090;-115.352;2023-04-08T00:51:20;21.61;23.02
76751;SHT31;65216;51.090;-115.352;2023-04-08T00:53:47;21.61;23.02
76751;SHT31;65216;51.090;-115.352;2023-04-08T00:56:14;21.61;23.00
76751;SHT31;65216;51.090;-115.352;2023-04-08T00:58:41;21.60;23.00
76751;SHT31;65216;51.090;-115.352;2023-04-08T01:01:13;21.59;23.00
76751;SHT31;65216;51.090;-115.352;2023-04-08T01:07:16;21.58;22.97
76751;SHT31;65216;51.090;-115.352;2023-04-08T01:09:53;21.56;22.98
76751;SHT31;65216;51.090;-115.352;2023-04-08T01:12:31;21.56;22.96
76751;SHT31;65216;51.090;-115.352;2023-04-08T01:15:06;21.55;22.93
76751;SHT31;65216;51.090;-115.352;2023-04-08T01:17:37;21.55;22.92
76751;SHT31;65216;51.090;-115.352;2023-04-08T01:20:06;21.54;22.92
76751;SHT31;65216;51.090;-115.352;2023-04-08T01:25:55;21.53;22.91
76751;SHT31;65216;51.090;-115.352;2023-04-08T01:28:26;21.53;22.90
76751;SHT31;65216;51.090;-115.352;2023-04-08T01:30:57;21.52;22.90
76751;SHT31;65216;51.090;-115.352;2023-04-08T01:33:27;21.52;22.90
76751;SHT31;65216;51.090;-115.352;2023-04-08T01:35:56;21.51;22.90
76751;SHT31;65216;51.090;-115.352;2023-04-08T01:38:24;21.53;22.91
76751;SHT31;65216;51.090;-115.352;2023-04-08T01:40:53;21.52;22.92
76751;SHT31;65216;51.090;-115.352;2023-04-08T01:43:24;21.51;22.93
76751;SHT31;65216;51.090;-115.352;2023-04-08T01:45:53;21.51;22.92
76751;SHT31;65216;51.090;-115.352;2023-04-08T01:48:22;21.51;22.90
76751;SHT31;65216;51.090;-115.352;2023-04-08T01:50:50;21.50;22.91
76751;SHT31;65216;51.090;-115.352;2023-04-08T01:53:22;21.51;22.98
76751;SHT31;65216;51.090;-115.352;2023-04-08T01:55:54;21.50;23.08
76751;SHT31;65216;51.090;-115.352;2023-04-08T01:58:30;21.50;23.09
76751;SHT31;65216;51.090;-115.352;2023-04-08T02:01:09;21.48;23.07
76751;SHT31;65216;51.090;-115.352;2023-04-08T02:03:43;21.48;23.07
76751;SHT31;65216;51.090;-115.352;2023-04-08T02:06:12;21.48;23.11
76751;SHT31;65216;51.090;-115.352;2023-04-08T02:08:42;21.49;23.20
76751;SHT31;65216;51.090;-115.352;2023-04-08T02:11:09;21.49;23.14
76751;SHT31;65216;51.090;-115.352;2023-04-08T02:13:38;21.48;23.11
76751;SHT31;65216;51.090;-115.352;2023-04-08T02:16:09;21.47;23.10
76751;SHT31;65216;51.090;-115.352;2023-04-08T02:18:57;21.47;23.11
76751;SHT31;65216;51.090;-115.352;2023-04-08T02:21:35;21.46;23.11
76751;SHT31;65216;51.090;-115.352;2023-04-08T02:24:12;21.44;23.11
76751;SHT31;65216;51.090;-115.352;2023-04-08T02:26:41;21.44;23.14
76751;SHT31;65216;51.090;-115.352;2023-04-08T02:29:13;21.44;23.18
76751;SHT31;65216;51.090;-115.352;2023-04-08T02:31:44;21.45;23.20
76751;SHT31;65216;51.090;-115.352;2023-04-08T02:34:14;21.44;23.20
76751;SHT31;65216;51.090;-115.352;2023-04-08T02:36:48;21.44;23.20
76751;SHT31;65216;51.090;-115.352;2023-04-08T02:39:17;21.44;23.18
76751;SHT31;65216;51.090;-115.352;2023-04-08T02:41:43;21.43;23.13
76751;SHT31;65216;51.090;-115.352;2023-04-08T02:44:13;21.43;23.16
76751;SHT31;65216;51.090;-115.352;2023-04-08T02:46:40;21.42;23.15
76751;SHT31;65216;51.090;-115.352;2023-04-08T02:49:10;21.42;23.15
76751;SHT31;65216;51.090;-115.352;2023-04-08T02:51:40;21.41;23.18
76751;SHT31;65216;51.090;-115.352;2023-04-08T02:54:07;21.41;23.20
76751;SHT31;65216;51.090;-115.352;2023-04-08T02:56:33;21.41;23.22
76751;SHT31;65216;51.090;-115.352;2023-04-08T02:59:00;21.40;23.20
76751;SHT31;65216;51.090;-115.352;2023-04-08T03:01:29;21.40;23.21
76751;SHT31;65216;51.090;-115.352;2023-04-08T03:03:56;21.39;23.20
76751;SHT31;65216;51.090;-115.352;2023-04-08T03:06:23;21.38;23.27
76751;SHT31;65216;51.090;-115.352;2023-04-08T03:08:51;21.37;23.20
76751;SHT31;65216;51.090;-115.352;2023-04-08T03:11:18;21.37;23.25
76751;SHT31;65216;51.090;-115.352;2023-04-08T03:13:45;21.36;23.22
76751;SHT31;65216;51.090;-115.352;2023-04-08T03:16:12;21.36;23.24
76751;SHT31;65216;51.090;-115.352;2023-04-08T03:18:42;21.36;23.22
76751;SHT31;65216;51.090;-115.352;2023-04-08T03:21:09;21.35;23.21
76751;SHT31;65216;51.090;-115.352;2023-04-08T03:23:36;21.35;23.23
76751;SHT31;65216;51.090;-115.352;2023-04-08T03:26:03;21.35;23.25
76751;SHT31;65216;51.090;-115.352;2023-04-08T03:28:30;21.34;23.28
76751;SHT31;65216;51.090;-115.352;2023-04-08T03:30:57;21.34;23.29
76751;SHT31;65216;51.090;-115.352;2023-04-08T03:33:27;21.33;23.31
76751;SHT31;65216;51.090;-115.352;2023-04-08T03:35:54;21.31;23.34
76751;SHT31;65216;51.090;-115.352;2023-04-08T03:38:21;21.30;23.32
76751;SHT31;65216;51.090;-115.352;2023-04-08T03:40:48;21.30;23.33
76751;SHT31;65216;51.090;-115.352;2023-04-08T03:43:15;21.30;23.37
76751;SHT31;65216;51.090;-115.352;2023-04-08T03:45:44;21.29;23.39
76751;SHT31;65216;51.090;-115.352;2023-04-08T03:48:10;21.30;23.40
76751;SHT31;65216;51.090;-115.352;2023-04-08T03:50:37;21.29;23.37
76751;SHT31;65216;51.090;-115.352;2023-04-08T03:53:04;21.29;23.32
76751;SHT31;65216;51.090;-115.352;2023-04-08T03:55:31;21.29;23.34
76751;SHT31;65216;51.090;-115.352;2023-04-08T03:57:58;21.27;23.32
76751;SHT31;65216;51.090;-115.352;2023-04-08T04:00:25;21.28;23.31
76751;SHT31;65216;51.090;-115.352;2023-04-08T04:02:52;21.28;23.30
76751;SHT31;65216;51.090;-115.352;2023-04-08T04:05:20;21.27;23.32
76751;SHT31;65216;51.090;-115.352;2023-04-08T04:07:48;21.25;23.31
76751;SHT31;65216;51.090;-115.352;2023-04-08T04:10:15;21.24;23.30
76751;SHT31;65216;51.090;-115.352;2023-04-08T04:12:42;21.24;23.30
76751;SHT31;65216;51.090;-115.352;2023-04-08T04:15:12;21.24;23.30
76751;SHT31;65216;51.090;-115.352;2023-04-08T04:17:39;21.24;23.31
76751;SHT31;65216;51.090;-115.352;2023-04-08T04:20:06;21.24;23.30
76751;SHT31;65216;51.090;-115.352;2023-04-08T04:22:34;21.24;23.33
76751;SHT31;65216;51.090;-115.352;2023-04-08T04:25:01;21.23;23.31
76751;SHT31;65216;51.090;-115.352;2023-04-08T04:27:28;21.24;23.34
76751;SHT31;65216;51.090;-115.352;2023-04-08T04:29:55;21.24;23.39
76751;SHT31;65216;51.090;-115.352;2023-04-08T04:32:22;21.25;23.37
76751;SHT31;65216;51.090;-115.352;2023-04-08T04:34:52;21.24;23.41
76751;SHT31;65216;51.090;-115.352;2023-04-08T04:37:19;21.23;23.40
76751;SHT31;65216;51.090;-115.352;2023-04-08T04:39:46;21.23;23.48
76751;SHT31;65216;51.090;-115.352;2023-04-08T04:42:13;21.22;23.50
76751;SHT31;65216;51.090;-115.352;2023-04-08T04:44:40;21.22;23.55
76751;SHT31;65216;51.090;-115.352;2023-04-08T04:47:09;21.22;23.56
76751;SHT31;65216;51.090;-115.352;2023-04-08T04:49:40;21.23;23.62
76751;SHT31;65216;51.090;-115.352;2023-04-08T04:52:07;21.23;23.63
76751;SHT31;65216;51.090;-115.352;2023-04-08T04:54:34;21.23;23.61
76751;SHT31;65216;51.090;-115.352;2023-04-08T04:57:03;21.24;23.61
76751;SHT31;65216;51.090;-115.352;2023-04-08T04:59:30;21.25;23.63
76751;SHT31;65216;51.090;-115.352;2023-04-08T05:02:00;21.24;23.67
76751;SHT31;65216;51.090;-115.352;2023-04-08T05:04:28;21.24;23.79
76751;SHT31;65216;51.090;-115.352;2023-04-08T05:06:57;21.24;23.80
76751;SHT31;65216;51.090;-115.352;2023-04-08T05:09:25;21.24;23.74
76751;SHT31;65216;51.090;-115.352;2023-04-08T05:11:52;21.25;23.71
76751;SHT31;65216;51.090;-115.352;2023-04-08T05:14:19;21.24;23.70
76751;SHT31;65216;51.090;-115.352;2023-04-08T05:16:46;21.25;23.68
76751;SHT31;65216;51.090;-115.352;2023-04-08T05:19:13;21.25;23.66
76751;SHT31;65216;51.090;-115.352;2023-04-08T05:21:40;21.25;23.65
76751;SHT31;65216;51.090;-115.352;2023-04-08T05:24:07;21.26;23.62
76751;SHT31;65216;51.090;-115.352;2023-04-08T05:26:35;21.26;23.63
76751;SHT31;65216;51.090;-115.352;2023-04-08T05:29:02;21.27;23.62
76751;SHT31;65216;51.090;-115.352;2023-04-08T05:31:29;21.26;23.64
76751;SHT31;65216;51.090;-115.352;2023-04-08T05:33:56;21.27;23.71
76751;SHT31;65216;51.090;-115.352;2023-04-08T05:36:26;21.27;24.14
76751;SHT31;65216;51.090;-115.352;2023-04-08T05:38:53;21.28;24.36
76751;SHT31;65216;51.090;-115.352;2023-04-08T05:41:20;21.28;24.19
76751;SHT31;65216;51.090;-115.352;2023-04-08T05:43:47;21.28;24.25
76751;SHT31;65216;51.090;-115.352;2023-04-08T05:46:14;21.28;24.13
76751;SHT31;65216;51.090;-115.352;2023-04-08T05:48:41;21.28;24.27
76751;SHT31;65216;51.090;-115.352;2023-04-08T05:51:14;21.28;24.49
76751;SHT31;65216;51.090;-115.352;2023-04-08T05:53:46;21.28;24.43
76751;SHT31;65216;51.090;-115.352;2023-04-08T05:56:14;21.28;24.34
76751;SHT31;65216;51.090;-115.352;2023-04-08T05:58:40;21.29;24.47
76751;SHT31;65216;51.090;-115.352;2023-04-08T06:01:07;21.29;24.77
76751;SHT31;65216;51.090;-115.352;2023-04-08T06:03:34;21.29;24.85
76751;SHT31;65216;51.090;-115.352;2023-04-08T06:06:01;21.29;24.73
76751;SHT31;65216;51.090;-115.352;2023-04-08T06:08:31;21.28;24.79
76751;SHT31;65216;51.090;-115.352;2023-04-08T06:11:01;21.26;24.79
76751;SHT31;65216;51.090;-115.352;2023-04-08T06:13:30;21.27;24.80
76751;SHT31;65216;51.090;-115.352;2023-04-08T06:15:57;21.26;24.73
76751;SHT31;65216;51.090;-115.352;2023-04-08T06:18:35;21.27;24.62
76751;SHT31;65216;51.090;-115.352;2023-04-08T06:21:02;21.27;24.56
76751;SHT31;65216;51.090;-115.352;2023-04-08T06:23:29;21.27;24.53
76751;SHT31;65216;51.090;-115.352;2023-04-08T06:25:56;21.27;24.50
76751;SHT31;65216;51.090;-115.352;2023-04-08T06:28:23;21.28;24.44
76751;SHT31;65216;51.090;-115.352;2023-04-08T06:30:50;21.28;24.47
76751;SHT31;65216;51.090;-115.352;2023-04-08T06:33:17;21.28;24.40
76751;SHT31;65216;51.090;-115.352;2023-04-08T06:35:44;21.28;24.39
76751;SHT31;65216;51.090;-115.352;2023-04-08T06:38:11;21.28;24.38
76751;SHT31;65216;51.090;-115.352;2023-04-08T06:40:38;21.28;24.32
76751;SHT31;65216;51.090;-115.352;2023-04-08T06:43:06;21.27;24.31
76751;SHT31;65216;51.090;-115.352;2023-04-08T06:45:33;21.28;24.29
76751;SHT31;65216;51.090;-115.352;2023-04-08T06:48:00;21.29;24.30
76751;SHT31;65216;51.090;-115.352;2023-04-08T06:50:27;21.29;24.29
76751;SHT31;65216;51.090;-115.352;2023-04-08T06:52:55;21.29;24.29
76751;SHT31;65216;51.090;-115.352;2023-04-08T06:55:24;21.28;24.29
76751;SHT31;65216;51.090;-115.352;2023-04-08T06:57:51;21.29;24.26
76751;SHT31;65216;51.090;-115.352;2023-04-08T07:00:18;21.28;24.28
76751;SHT31;65216;51.090;-115.352;2023-04-08T07:02:48;21.28;24.22
76751;SHT31;65216;51.090;-115.352;2023-04-08T07:05:15;21.28;24.21
76751;SHT31;65216;51.090;-115.352;2023-04-08T07:07:42;21.27;24.22
76751;SHT31;65216;51.090;-115.352;2023-04-08T07:10:09;21.27;24.21
76751;SHT31;65216;51.090;-115.352;2023-04-08T07:12:37;21.25;24.22
76751;SHT31;65216;51.090;-115.352;2023-04-08T07:15:04;21.25;24.21
76751;SHT31;65216;51.090;-115.352;2023-04-08T07:17:32;21.25;24.20
76751;SHT31;65216;51.090;-115.352;2023-04-08T07:19:59;21.26;24.16
76751;SHT31;65216;51.090;-115.352;2023-04-08T07:22:26;21.27;24.12
76751;SHT31;65216;51.090;-115.352;2023-04-08T07:24:53;21.27;24.12
76751;SHT31;65216;51.090;-115.352;2023-04-08T07:27:22;21.28;24.10
76751;SHT31;65216;51.090;-115.352;2023-04-08T07:29:52;21.28;24.09
76751;SHT31;65216;51.090;-115.352;2023-04-08T07:32:20;21.26;24.10
76751;SHT31;65216;51.090;-115.352;2023-04-08T07:34:48;21.26;24.09
76751;SHT31;65216;51.090;-115.352;2023-04-08T07:37:15;21.25;24.06
76751;SHT31;65216;51.090;-115.352;2023-04-08T07:39:42;21.25;24.02
76751;SHT31;65216;51.090;-115.352;2023-04-08T07:42:09;21.26;24.01
76751;SHT31;65216;51.090;-115.352;2023-04-08T07:44:36;21.25;24.00
76751;SHT31;65216;51.090;-115.352;2023-04-08T07:47:03;21.25;24.00
76751;SHT31;65216;51.090;-115.352;2023-04-08T07:49:30;21.26;24.00
76751;SHT31;65216;51.090;-115.352;2023-04-08T07:51:57;21.26;23.94
76751;SHT31;65216;51.090;-115.352;2023-04-08T07:54:24;21.25;23.96
76751;SHT31;65216;51.090;-115.352;2023-04-08T07:56:51;21.25;23.92
76751;SHT31;65216;51.090;-115.352;2023-04-08T07:59:18;21.26;23.91
76751;SHT31;65216;51.090;-115.352;2023-04-08T08:01:45;21.27;23.89
76751;SHT31;65216;51.090;-115.352;2023-04-08T08:04:11;21.27;23.83
76751;SHT31;65216;51.090;-115.352;2023-04-08T08:06:41;21.26;23.82
76751;SHT31;65216;51.090;-115.352;2023-04-08T08:09:08;21.25;23.81
76751;SHT31;65216;51.090;-115.352;2023-04-08T08:11:35;21.25;23.83
76751;SHT31;65216;51.090;-115.352;2023-04-08T08:14:02;21.24;23.80
76751;SHT31;65216;51.090;-115.352;2023-04-08T08:16:30;21.26;23.77
76751;SHT31;65216;51.090;-115.352;2023-04-08T08:18:58;21.26;23.72
76751;SHT31;65216;51.090;-115.352;2023-04-08T08:21:25;21.25;23.70
76751;SHT31;65216;51.090;-115.352;2023-04-08T08:23:52;21.25;23.66
76751;SHT31;65216;51.090;-115.352;2023-04-08T08:26:19;21.27;23.61
76751;SHT31;65216;51.090;-115.352;2023-04-08T08:28:46;21.27;23.60
76751;SHT31;65216;51.090;-115.352;2023-04-08T08:31:13;21.28;23.60
76751;SHT31;65216;51.090;-115.352;2023-04-08T08:33:40;21.28;23.59
76751;SHT31;65216;51.090;-115.352;2023-04-08T08:36:11;21.27;23.56
76751;SHT31;65216;51.090;-115.352;2023-04-08T08:38:38;21.28;23.51
76751;SHT31;65216;51.090;-115.352;2023-04-08T08:41:05;21.28;23.49
76751;SHT31;65216;51.090;-115.352;2023-04-08T08:43:32;21.26;23.49
76751;SHT31;65216;51.090;-115.352;2023-04-08T08:46:00;21.28;23.50
76751;SHT31;65216;51.090;-115.352;2023-04-08T08:48:28;21.27;23.50
76751;SHT31;65216;51.090;-115.352;2023-04-08T08:50:57;21.28;23.46
76751;SHT31;65216;51.090;-115.352;2023-04-08T08:53:30;21.27;23.45
76751;SHT31;65216;51.090;-115.352;2023-04-08T08:55:57;21.27;23.44
76751;SHT31;65216;51.090;-115.352;2023-04-08T08:58:27;21.28;23.40
76751;SHT31;65216;51.090;-115.352;2023-04-08T09:00:57;21.27;23.38
76751;SHT31;65216;51.090;-115.352;2023-04-08T09:03:26;21.27;23.38
76751;SHT31;65216;51.090;-115.352;2023-04-08T09:05:58;21.28;23.33
76751;SHT31;65216;51.090;-115.352;2023-04-08T09:08:29;21.27;23.30
76751;SHT31;65216;51.090;-115.352;2023-04-08T09:11:11;21.27;23.30
76751;SHT31;65216;51.090;-115.352;2023-04-08T09:13:46;21.26;23.29
76751;SHT31;65216;51.090;-115.352;2023-04-08T09:16:17;21.25;23.24
76751;SHT31;65216;51.090;-115.352;2023-04-08T09:18:45;21.25;23.20
76751;SHT31;65216;51.090;-115.352;2023-04-08T09:21:14;21.25;23.22
76751;SHT31;65216;51.090;-115.352;2023-04-08T09:23:43;21.26;23.19
76751;SHT31;65216;51.090;-115.352;2023-04-08T09:26:21;21.25;23.12
76751;SHT31;65216;51.090;-115.352;2023-04-08T09:29:01;21.25;23.10
76751;SHT31;65216;51.090;-115.352;2023-04-08T09:31:34;21.25;23.04
76751;SHT31;65216;51.090;-115.352;2023-04-08T09:34:12;21.25;23.00
76751;SHT31;65216;51.090;-115.352;2023-04-08T09:36:46;21.24;22.98
76751;SHT31;65216;51.090;-115.352;2023-04-08T09:39:14;21.26;22.93
76751;SHT31;65216;51.090;-115.352;2023-04-08T09:41:42;21.25;22.88
76751;SHT31;65216;51.090;-115.352;2023-04-08T09:44:10;21.24;22.87
76751;SHT31;65216;51.090;-115.352;2023-04-08T09:46:39;21.24;22.86
76751;SHT31;65216;51.090;-115.352;2023-04-08T09:55:14;21.23;22.76
76751;SHT31;65216;51.090;-115.352;2023-04-08T10:00:39;21.23;22.74
76751;SHT31;65216;51.090;-115.352;2023-04-08T10:06:21;21.23;22.71
76751;SHT31;65216;51.090;-115.352;2023-04-08T10:08:58;21.21;22.74
76751;SHT31;65216;51.090;-115.352;2023-04-08T10:11:32;21.19;22.75
76751;SHT31;65216;51.090;-115.352;2023-04-08T10:14:03;21.17;22.75
76751;SHT31;65216;51.090;-115.352;2023-04-08T10:16:31;21.16;22.78
76751;SHT31;65216;51.090;-115.352;2023-04-08T10:18:58;21.16;22.79
76751;SHT31;65216;51.090;-115.352;2023-04-08T10:21:32;21.14;22.80
76751;SHT31;65216;51.090;-115.352;2023-04-08T10:24:12;21.12;22.82
76751;SHT31;65216;51.090;-115.352;2023-04-08T10:26:43;21.09;22.85
76751;SHT31;65216;51.090;-115.352;2023-04-08T10:31:46;21.05;22.88
76751;SHT31;65216;51.090;-115.352;2023-04-08T10:34:15;21.03;22.88
76751;SHT31;65216;51.090;-115.352;2023-04-08T10:36:49;21.01;22.88
76751;SHT31;65216;51.090;-115.352;2023-04-08T10:39:17;21.01;22.90
76751;SHT31;65216;51.090;-115.352;2023-04-08T10:41:48;20.99;22.89
76751;SHT31;65216;51.090;-115.352;2023-04-08T10:44:19;20.98;22.90
76751;SHT31;65216;51.090;-115.352;2023-04-08T10:46:49;20.96;22.91
76751;SHT31;65216;51.090;-115.352;2023-04-08T10:49:18;20.94;22.94
76751;SHT31;65216;51.090;-115.352;2023-04-08T10:51:47;20.93;22.93
76751;SHT31;65216;51.090;-115.352;2023-04-08T10:54:17;20.93;22.91
76751;SHT31;65216;51.090;-115.352;2023-04-08T10:59:17;20.90;22.90
76751;SHT31;65216;51.090;-115.352;2023-04-08T11:01:57;20.89;22.86
76751;SHT31;65216;51.090;-115.352;2023-04-08T11:04:25;20.89;22.82
76751;SHT31;65216;51.090;-115.352;2023-04-08T11:06:52;20.86;22.81
76751;SHT31;65216;51.090;-115.352;2023-04-08T11:09:20;20.87;22.83
76751;SHT31;65216;51.090;-115.352;2023-04-08T11:11:47;20.86;22.81
76751;SHT31;65216;51.090;-115.352;2023-04-08T11:14:15;20.86;22.79
76751;SHT31;65216;51.090;-115.352;2023-04-08T11:16:46;20.85;22.80
76751;SHT31;65216;51.090;-115.352;2023-04-08T11:19:13;20.85;22.83
76751;SHT31;65216;51.090;-115.352;2023-04-08T11:21:40;20.84;22.80
76751;SHT31;65216;51.090;-115.352;2023-04-08T11:24:10;20.84;22.79
76751;SHT31;65216;51.090;-115.352;2023-04-08T11:26:38;20.84;22.80
76751;SHT31;65216;51.090;-115.352;2023-04-08T11:29:12;20.83;22.81
76751;SHT31;65216;51.090;-115.352;2023-04-08T11:31:43;20.82;22.80
76751;SHT31;65216;51.090;-115.352;2023-04-08T11:34:12;20.82;22.82
76751;SHT31;65216;51.090;-115.352;2023-04-08T11:36:49;20.81;22.81
76751;SHT31;65216;51.090;-115.352;2023-04-08T11:39:22;20.80;22.80
76751;SHT31;65216;51.090;-115.352;2023-04-08T11:41:50;20.80;22.79
76751;SHT31;65216;51.090;-115.352;2023-04-08T11:44:31;20.79;22.80
76751;SHT31;65216;51.090;-115.352;2023-04-08T11:46:58;20.79;22.78
76751;SHT31;65216;51.090;-115.352;2023-04-08T11:49:26;20.79;22.76
76751;SHT31;65216;51.090;-115.352;2023-04-08T11:52:10;20.79;22.78
76751;SHT31;65216;51.090;-115.352;2023-04-08T11:54:41;20.79;22.75
76751;SHT31;65216;51.090;-115.352;2023-04-08T11:57:08;20.78;22.74
76751;SHT31;65216;51.090;-115.352;2023-04-08T11:59:35;20.78;22.75
76751;SHT31;65216;51.090;-115.352;2023-04-08T12:02:02;20.77;22.74
76751;SHT31;65216;51.090;-115.352;2023-04-08T12:04:29;20.77;22.73
76751;SHT31;65216;51.090;-115.352;2023-04-08T12:06:56;20.76;22.71
76751;SHT31;65216;51.090;-115.352;2023-04-08T12:09:26;20.76;22.70
76751;SHT31;65216;51.090;-115.352;2023-04-08T12:11:56;20.75;22.70
76751;SHT31;65216;51.090;-115.352;2023-04-08T12:14:23;20.75;22.70
76751;SHT31;65216;51.090;-115.352;2023-04-08T12:16:50;20.74;22.68
76751;SHT31;65216;51.090;-115.352;2023-04-08T12:19:17;20.74;22.64
76751;SHT31;65216;51.090;-115.352;2023-04-08T12:21:47;20.74;22.61
76751;SHT31;65216;51.090;-115.352;2023-04-08T12:24:14;20.74;22.60
76751;SHT31;65216;51.090;-115.352;2023-04-08T12:26:41;20.73;22.58
76751;SHT31;65216;51.090;-115.352;2023-04-08T12:29:08;20.72;22.58
76751;SHT31;65216;51.090;-115.352;2023-04-08T12:31:38;20.73;22.57
76751;SHT31;65216;51.090;-115.352;2023-04-08T12:34:07;20.71;22.55
76751;SHT31;65216;51.090;-115.352;2023-04-08T12:36:34;20.71;22.53
76751;SHT31;65216;51.090;-115.352;2023-04-08T12:39:03;20.70;22.50
76751;SHT31;65216;51.090;-115.352;2023-04-08T12:41:30;20.69;22.48
76751;SHT31;65216;51.090;-115.352;2023-04-08T12:43:57;20.69;22.43
76751;SHT31;65216;51.090;-115.352;2023-04-08T12:46:25;20.69;22.42
76751;SHT31;65216;51.090;-115.352;2023-04-08T12:48:53;20.69;22.42
76751;SHT31;65216;51.090;-115.352;2023-04-08T12:51:20;20.68;22.41
76751;SHT31;65216;51.090;-115.352;2023-04-08T12:53:47;20.68;22.40
76751;SHT31;65216;51.090;-115.352;2023-04-08T12:56:13;20.68;22.40
76751;SHT31;65216;51.090;-115.352;2023-04-08T12:58:40;20.67;22.39
76751;SHT31;65216;51.090;-115.352;2023-04-08T13:01:13;20.66;22.40
76751;SHT31;65216;51.090;-115.352;2023-04-08T13:03:40;20.65;22.40
76751;SHT31;65216;51.090;-115.352;2023-04-08T13:06:07;20.66;22.40
76751;SHT31;65216;51.090;-115.352;2023-04-08T13:08:34;20.67;22.37
76751;SHT31;65216;51.090;-115.352;2023-04-08T13:11:01;20.67;22.33
76751;SHT31;65216;51.090;-115.352;2023-04-08T13:13:28;20.69;22.31
76751;SHT31;65216;51.090;-115.352;2023-04-08T13:15:55;20.69;22.30
76751;SHT31;65216;51.090;-115.352;2023-04-08T13:18:25;20.70;22.29
76751;SHT31;65216;51.090;-115.352;2023-04-08T13:20:52;20.71;22.30
76751;SHT31;65216;51.090;-115.352;2023-04-08T13:23:19;20.71;22.29
76751;SHT31;65216;51.090;-115.352;2023-04-08T13:25:47;20.71;22.28
76751;SHT31;65216;51.090;-115.352;2023-04-08T13:28:14;20.71;22.27
76751;SHT31;65216;51.090;-115.352;2023-04-08T13:30:41;20.73;22.28
76751;SHT31;65216;51.090;-115.352;2023-04-08T13:33:10;20.72;22.25
76751;SHT31;65216;51.090;-115.352;2023-04-08T13:35:37;20.72;22.26
76751;SHT31;65216;51.090;-115.352;2023-04-08T13:38:07;20.73;22.21
76751;SHT31;65216;51.090;-115.352;2023-04-08T13:40:34;20.74;22.21
76751;SHT31;65216;51.090;-115.352;2023-04-08T13:43:01;20.74;22.21
76751;SHT31;65216;51.090;-115.352;2023-04-08T13:45:28;20.74;22.20
76751;SHT31;65216;51.090;-115.352;2023-04-08T13:47:55;20.74;22.20
76751;SHT31;65216;51.090;-115.352;2023-04-08T13:50:22;20.76;22.20
76751;SHT31;65216;51.090;-115.352;2023-04-08T13:52:49;20.76;22.18
76751;SHT31;65216;51.090;-115.352;2023-04-08T13:55:16;20.77;22.15
76751;SHT31;65216;51.090;-115.352;2023-04-08T13:57:46;20.75;22.17
76751;SHT31;65216;51.090;-115.352;2023-04-08T14:00:13;20.77;22.12
76751;SHT31;65216;51.090;-115.352;2023-04-08T14:02:41;20.76;22.15
76751;SHT31;65216;51.090;-115.352;2023-04-08T14:05:07;20.78;22.10
76751;SHT31;65216;51.090;-115.352;2023-04-08T14:07:35;20.77;22.09
76751;SHT31;65216;51.090;-115.352;2023-04-08T14:10:01;20.78;22.10
76751;SHT31;65216;51.090;-115.352;2023-04-08T14:12:29;20.77;22.03
76751;SHT31;65216;51.090;-115.352;2023-04-08T14:14:56;20.77;22.04
76751;SHT31;65216;51.090;-115.352;2023-04-08T14:17:23;20.78;22.03
76751;SHT31;65216;51.090;-115.352;2023-04-08T14:19:50;20.78;22.01
76751;SHT31;65216;51.090;-115.352;2023-04-08T14:22:17;20.78;22.09
76751;SHT31;65216;51.090;-115.352;2023-04-08T14:24:44;20.77;22.09
76751;SHT31;65216;51.090;-115.352;2023-04-08T14:27:10;20.78;22.06
76751;SHT31;65216;51.090;-115.352;2023-04-08T14:29:37;20.78;22.04
76751;SHT31;65216;51.090;-115.352;2023-04-08T14:32:07;20.78;22.07
76751;SHT31;65216;51.090;-115.352;2023-04-08T14:34:36;20.79;22.04
76751;SHT31;65216;51.090;-115.352;2023-04-08T14:37:03;20.78;22.06
76751;SHT31;65216;51.090;-115.352;2023-04-08T14:39:30;20.78;22.09
76751;SHT31;65216;51.090;-115.352;2023-04-08T14:41:57;20.79;22.09
76751;SHT31;65216;51.090;-115.352;2023-04-08T14:44:24;20.79;22.10
76751;SHT31;65216;51.090;-115.352;2023-04-08T14:46:51;20.78;22.13
76751;SHT31;65216;51.090;-115.352;2023-04-08T14:49:18;20.79;22.12
76751;SHT31;65216;51.090;-115.352;2023-04-08T14:51:45;20.81;22.15
76751;SHT31;65216;51.090;-115.352;2023-04-08T14:54:12;20.81;22.16
76751;SHT31;65216;51.090;-115.352;2023-04-08T14:56:41;20.81;22.21
76751;SHT31;65216;51.090;-115.352;2023-04-08T14:59:07;20.81;22.28
76751;SHT31;65216;51.090;-115.352;2023-04-08T15:01:35;20.82;22.38
76751;SHT31;65216;51.090;-115.352;2023-04-08T15:04:02;20.83;22.45
76751;SHT31;65216;51.090;-115.352;2023-04-08T15:06:30;20.85;22.49
76751;SHT31;65216;51.090;-115.352;2023-04-08T15:08:57;20.85;22.58
76751;SHT31;65216;51.090;-115.352;2023-04-08T15:11:24;20.86;22.60
76751;SHT31;65216;51.090;-115.352;2023-04-08T15:13:51;20.87;22.59
76751;SHT31;65216;51.090;-115.352;2023-04-08T15:16:17;20.87;22.64
76751;SHT31;65216;51.090;-115.352;2023-04-08T15:18:46;20.88;22.67
76751;SHT31;65216;51.090;-115.352;2023-04-08T15:21:13;20.90;22.75